sensor_id;sensor_type;location;lat;lon;timestamp;P1;durP1;ratioP1;P2;durP2;ratioP2
39772;SDS011;25451;51.960;6.250;2023-05-07T00:00:50;8.03;;;4.70;;
39772;SDS011;25451;51.960;6.250;2023-05-07T00:03:16;8.45;;;4.82;;
39772;SDS011;25451;51.960;6.250;2023-05-07T00:05:41;8.80;;;4.90;;
39772;SDS011;25451;51.960;6.250;2023-05-07T00:08:07;7.10;;;4.53;;
39772;SDS011;25451;51.960;6.250;2023-05-07T00:10:32;7.55;;;4.38;;
39772;SDS011;25451;51.960;6.250;2023-05-07T00:12:58;7.37;;;4.43;;
39772;SDS011;25451;51.960;6.250;2023-05-07T00:15:23;7.53;;;4.77;;
39772;SDS011;25451;51.960;6.250;2023-05-07T00:17:49;7.03;;;4.50;;
39772;SDS011;25451;51.960;6.250;2023-05-07T00:20:14;6.33;;;4.53;;
39772;SDS011;25451;51.960;6.250;2023-05-07T00:22:39;6.68;;;4.60;;
39772;SDS011;25451;51.960;6.250;2023-05-07T00:25:05;8.50;;;4.60;;
39772;SDS011;25451;51.960;6.250;2023-05-07T00:27:30;9.13;;;5.10;;
39772;SDS011;25451;51.960;6.250;2023-05-07T00:29:55;8.33;;;4.57;;
39772;SDS011;25451;51.960;6.250;2023-05-07T00:32:21;8.83;;;4.87;;
39772;SDS011;25451;51.960;6.250;2023-05-07T00:34:46;7.80;;;4.50;;
39772;SDS011;25451;51.960;6.250;2023-05-07T00:37:11;7.07;;;4.40;;
39772;SDS011;25451;51.960;6.250;2023-05-07T00:39:37;7.00;;;4.00;;
39772;SDS011;25451;51.960;6.250;2023-05-07T00:42:02;6.88;;;4.13;;
39772;SDS011;25451;51.960;6.250;2023-05-07T00:44:28;6.93;;;4.20;;
39772;SDS011;25451;51.960;6.250;2023-05-07T00:46:53;7.50;;;3.93;;
39772;SDS011;25451;51.960;6.250;2023-05-07T00:49:19;7.60;;;4.18;;
39772;SDS011;25451;51.960;6.250;2023-05-07T00:51:44;8.50;;;4.60;;
39772;SDS011;25451;51.960;6.250;2023-05-07T00:54:10;8.77;;;3.85;;
39772;SDS011;25451;51.960;6.250;2023-05-07T00:56:36;7.67;;;4.30;;
39772;SDS011;25451;51.960;6.250;2023-05-07T00:59:02;6.30;;;4.17;;
39772;SDS011;25451;51.960;6.250;2023-05-07T01:01:28;7.90;;;3.97;;
39772;SDS011;25451;51.960;6.250;2023-05-07T01:03:53;7.00;;;3.83;;
39772;SDS011;25451;51.960;6.250;2023-05-07T01:06:18;7.17;;;3.80;;
39772;SDS011;25451;51.960;6.250;2023-05-07T01:08:46;8.52;;;4.10;;
39772;SDS011;25451;51.960;6.250;2023-05-07T01:11:12;7.88;;;4.00;;
39772;SDS011;25451;51.960;6.250;2023-05-07T01:13:38;9.80;;;4.30;;
39772;SDS011;25451;51.960;6.250;2023-05-07T01:16:04;6.65;;;3.58;;
39772;SDS011;25451;51.960;6.250;2023-05-07T01:18:30;6.87;;;3.90;;
39772;SDS011;25451;51.960;6.250;2023-05-07T01:20:56;8.07;;;4.00;;
39772;SDS011;25451;51.960;6.250;2023-05-07T01:23:23;7.75;;;4.20;;
39772;SDS011;25451;51.960;6.250;2023-05-07T01:25:53;6.55;;;3.97;;
39772;SDS011;25451;51.960;6.250;2023-05-07T01:28:19;6.20;;;3.80;;
39772;SDS011;25451;51.960;6.250;2023-05-07T01:30:45;7.60;;;4.13;;
39772;SDS011;25451;51.960;6.250;2023-05-07T01:33:13;7.18;;;4.15;;
39772;SDS011;25451;51.960;6.250;2023-05-07T01:35:43;7.13;;;4.47;;
39772;SDS011;25451;51.960;6.250;2023-05-07T01:38:12;7.88;;;4.32;;
39772;SDS011;25451;51.960;6.250;2023-05-07T01:40:38;7.63;;;4.20;;
39772;SDS011;25451;51.960;6.250;2023-05-07T01:43:03;8.37;;;4.10;;
39772;SDS011;25451;51.960;6.250;2023-05-07T01:45:30;8.50;;;4.45;;
39772;SDS011;25451;51.960;6.250;2023-05-07T01:47:56;8.00;;;4.28;;
39772;SDS011;25451;51.960;6.250;2023-05-07T01:50:23;6.93;;;4.05;;
39772;SDS011;25451;51.960;6.250;2023-05-07T01:52:50;8.43;;;4.63;;
39772;SDS011;25451;51.960;6.250;2023-05-07T01:55:15;8.45;;;5.07;;
39772;SDS011;25451;51.960;6.250;2023-05-07T01:57:41;8.47;;;5.30;;
39772;SDS011;25451;51.960;6.250;2023-05-07T02:00:06;8.33;;;5.23;;
39772;SDS011;25451;51.960;6.250;2023-05-07T02:02:33;9.35;;;5.40;;
39772;SDS011;25451;51.960;6.250;2023-05-07T02:04:59;9.70;;;5.60;;
39772;SDS011;25451;51.960;6.250;2023-05-07T02:07:25;8.68;;;5.57;;
39772;SDS011;25451;51.960;6.250;2023-05-07T02:09:51;10.23;;;5.60;;
39772;SDS011;25451;51.960;6.250;2023-05-07T02:12:16;8.90;;;5.33;;
39772;SDS011;25451;51.960;6.250;2023-05-07T02:14:42;11.10;;;6.27;;
39772;SDS011;25451;51.960;6.250;2023-05-07T02:17:07;9.33;;;5.67;;
39772;SDS011;25451;51.960;6.250;2023-05-07T02:19:32;10.07;;;5.88;;
39772;SDS011;25451;51.960;6.250;2023-05-07T02:21:58;8.77;;;5.63;;
39772;SDS011;25451;51.960;6.250;2023-05-07T02:24:23;9.13;;;5.83;;
39772;SDS011;25451;51.960;6.250;2023-05-07T02:26:48;9.40;;;6.07;;
39772;SDS011;25451;51.960;6.250;2023-05-07T02:29:13;10.90;;;6.23;;
39772;SDS011;25451;51.960;6.250;2023-05-07T02:31:39;10.90;;;6.27;;
39772;SDS011;25451;51.960;6.250;2023-05-07T02:34:04;12.00;;;7.27;;
39772;SDS011;25451;51.960;6.250;2023-05-07T02:36:29;10.30;;;6.67;;
39772;SDS011;25451;51.960;6.250;2023-05-07T02:38:55;13.40;;;6.90;;
39772;SDS011;25451;51.960;6.250;2023-05-07T02:41:20;10.37;;;6.50;;
39772;SDS011;25451;51.960;6.250;2023-05-07T02:43:45;13.23;;;6.38;;
39772;SDS011;25451;51.960;6.250;2023-05-07T02:46:11;10.23;;;6.77;;
39772;SDS011;25451;51.960;6.250;2023-05-07T02:48:36;12.27;;;6.67;;
39772;SDS011;25451;51.960;6.250;2023-05-07T02:51:01;11.70;;;6.87;;
39772;SDS011;25451;51.960;6.250;2023-05-07T02:53:27;9.88;;;6.53;;
39772;SDS011;25451;51.960;6.250;2023-05-07T02:55:55;9.77;;;6.43;;
39772;SDS011;25451;51.960;6.250;2023-05-07T02:58:21;8.80;;;6.13;;
39772;SDS011;25451;51.960;6.250;2023-05-07T03:00:46;9.83;;;6.27;;
39772;SDS011;25451;51.960;6.250;2023-05-07T03:03:12;9.93;;;5.97;;
39772;SDS011;25451;51.960;6.250;2023-05-07T03:05:37;9.32;;;6.00;;
39772;SDS011;25451;51.960;6.250;2023-05-07T03:08:02;9.17;;;5.90;;
39772;SDS011;25451;51.960;6.250;2023-05-07T03:10:29;8.88;;;5.82;;
39772;SDS011;25451;51.960;6.250;2023-05-07T03:12:54;10.15;;;5.80;;
39772;SDS011;25451;51.960;6.250;2023-05-07T03:15:20;9.87;;;5.90;;
39772;SDS011;25451;51.960;6.250;2023-05-07T03:17:46;10.65;;;5.50;;
39772;SDS011;25451;51.960;6.250;2023-05-07T03:20:12;10.55;;;6.13;;
39772;SDS011;25451;51.960;6.250;2023-05-07T03:22:37;9.23;;;5.50;;
39772;SDS011;25451;51.960;6.250;2023-05-07T03:25:03;9.57;;;6.13;;
39772;SDS011;25451;51.960;6.250;2023-05-07T03:27:29;9.27;;;6.03;;
39772;SDS011;25451;51.960;6.250;2023-05-07T03:29:55;9.73;;;6.30;;
39772;SDS011;25451;51.960;6.250;2023-05-07T03:32:20;13.00;;;7.37;;
39772;SDS011;25451;51.960;6.250;2023-05-07T03:34:45;10.13;;;6.47;;
39772;SDS011;25451;51.960;6.250;2023-05-07T03:37:11;10.43;;;6.57;;
39772;SDS011;25451;51.960;6.250;2023-05-07T03:39:36;11.53;;;6.93;;
39772;SDS011;25451;51.960;6.250;2023-05-07T03:42:01;10.53;;;6.43;;
39772;SDS011;25451;51.960;6.250;2023-05-07T03:44:27;9.60;;;6.25;;
39772;SDS011;25451;51.960;6.250;2023-05-07T03:46:52;10.60;;;6.57;;
39772;SDS011;25451;51.960;6.250;2023-05-07T03:49:18;9.30;;;6.30;;
39772;SDS011;25451;51.960;6.250;2023-05-07T03:51:43;9.13;;;6.30;;
39772;SDS011;25451;51.960;6.250;2023-05-07T03:54:08;10.13;;;6.60;;
39772;SDS011;25451;51.960;6.250;2023-05-07T03:56:34;10.73;;;7.23;;
39772;SDS011;25451;51.960;6.250;2023-05-07T03:59:00;10.07;;;6.57;;
39772;SDS011;25451;51.960;6.250;2023-05-07T04:01:26;9.45;;;6.95;;
39772;SDS011;25451;51.960;6.250;2023-05-07T04:03:51;9.57;;;6.50;;
39772;SDS011;25451;51.960;6.250;2023-05-07T04:06:16;10.20;;;7.03;;
39772;SDS011;25451;51.960;6.250;2023-05-07T04:08:42;9.73;;;6.95;;
39772;SDS011;25451;51.960;6.250;2023-05-07T04:11:08;10.70;;;7.20;;
39772;SDS011;25451;51.960;6.250;2023-05-07T04:13:33;12.10;;;6.87;;
39772;SDS011;25451;51.960;6.250;2023-05-07T04:15:58;9.07;;;6.00;;
39772;SDS011;25451;51.960;6.250;2023-05-07T04:18:25;11.45;;;7.05;;
39772;SDS011;25451;51.960;6.250;2023-05-07T04:20:51;11.20;;;7.07;;
39772;SDS011;25451;51.960;6.250;2023-05-07T04:23:16;9.60;;;6.67;;
39772;SDS011;25451;51.960;6.250;2023-05-07T04:25:41;10.17;;;7.00;;
39772;SDS011;25451;51.960;6.250;2023-05-07T04:28:07;12.05;;;6.97;;
39772;SDS011;25451;51.960;6.250;2023-05-07T04:30:32;11.95;;;6.88;;
39772;SDS011;25451;51.960;6.250;2023-05-07T04:32:57;9.40;;;6.33;;
39772;SDS011;25451;51.960;6.250;2023-05-07T04:35:22;9.83;;;6.57;;
39772;SDS011;25451;51.960;6.250;2023-05-07T04:37:48;9.87;;;6.30;;
39772;SDS011;25451;51.960;6.250;2023-05-07T04:40:13;11.27;;;7.07;;
39772;SDS011;25451;51.960;6.250;2023-05-07T04:42:38;10.57;;;7.10;;
39772;SDS011;25451;51.960;6.250;2023-05-07T04:45:04;10.90;;;6.27;;
39772;SDS011;25451;51.960;6.250;2023-05-07T04:47:30;10.10;;;6.75;;
39772;SDS011;25451;51.960;6.250;2023-05-07T04:49:55;9.17;;;6.37;;
39772;SDS011;25451;51.960;6.250;2023-05-07T04:52:20;11.27;;;7.10;;
39772;SDS011;25451;51.960;6.250;2023-05-07T04:54:46;10.70;;;6.90;;
39772;SDS011;25451;51.960;6.250;2023-05-07T04:57:11;11.80;;;6.83;;
39772;SDS011;25451;51.960;6.250;2023-05-07T04:59:36;9.30;;;6.50;;
39772;SDS011;25451;51.960;6.250;2023-05-07T05:02:02;10.20;;;6.90;;
39772;SDS011;25451;51.960;6.250;2023-05-07T05:04:29;11.03;;;7.27;;
39772;SDS011;25451;51.960;6.250;2023-05-07T05:06:54;9.85;;;6.80;;
39772;SDS011;25451;51.960;6.250;2023-05-07T05:09:20;11.00;;;7.03;;
39772;SDS011;25451;51.960;6.250;2023-05-07T05:11:45;11.77;;;6.80;;
39772;SDS011;25451;51.960;6.250;2023-05-07T05:14:10;9.70;;;7.03;;
39772;SDS011;25451;51.960;6.250;2023-05-07T05:16:36;10.93;;;6.67;;
39772;SDS011;25451;51.960;6.250;2023-05-07T05:19:01;9.70;;;6.97;;
39772;SDS011;25451;51.960;6.250;2023-05-07T05:21:27;12.82;;;7.15;;
39772;SDS011;25451;51.960;6.250;2023-05-07T05:23:52;11.90;;;7.20;;
39772;SDS011;25451;51.960;6.250;2023-05-07T05:26:18;10.32;;;6.85;;
39772;SDS011;25451;51.960;6.250;2023-05-07T05:28:43;12.07;;;7.07;;
39772;SDS011;25451;51.960;6.250;2023-05-07T05:31:09;12.23;;;7.82;;
39772;SDS011;25451;51.960;6.250;2023-05-07T05:33:35;9.40;;;6.77;;
39772;SDS011;25451;51.960;6.250;2023-05-07T05:36:00;12.47;;;7.13;;
39772;SDS011;25451;51.960;6.250;2023-05-07T05:38:26;10.87;;;6.97;;
39772;SDS011;25451;51.960;6.250;2023-05-07T05:40:51;11.13;;;7.43;;
39772;SDS011;25451;51.960;6.250;2023-05-07T05:43:16;11.50;;;7.70;;
39772;SDS011;25451;51.960;6.250;2023-05-07T05:45:41;12.37;;;7.17;;
39772;SDS011;25451;51.960;6.250;2023-05-07T05:48:07;11.90;;;7.45;;
39772;SDS011;25451;51.960;6.250;2023-05-07T05:50:33;11.33;;;7.13;;
39772;SDS011;25451;51.960;6.250;2023-05-07T05:53:00;10.50;;;6.90;;
39772;SDS011;25451;51.960;6.250;2023-05-07T05:55:26;14.27;;;8.10;;
39772;SDS011;25451;51.960;6.250;2023-05-07T05:57:51;13.32;;;8.10;;
39772;SDS011;25451;51.960;6.250;2023-05-07T06:00:17;11.30;;;7.70;;
39772;SDS011;25451;51.960;6.250;2023-05-07T06:02:42;13.67;;;7.67;;
39772;SDS011;25451;51.960;6.250;2023-05-07T06:05:08;12.70;;;8.35;;
39772;SDS011;25451;51.960;6.250;2023-05-07T06:07:34;12.05;;;7.65;;
39772;SDS011;25451;51.960;6.250;2023-05-07T06:10:00;12.85;;;7.90;;
39772;SDS011;25451;51.960;6.250;2023-05-07T06:12:25;12.82;;;7.72;;
39772;SDS011;25451;51.960;6.250;2023-05-07T06:14:51;12.83;;;8.07;;
39772;SDS011;25451;51.960;6.250;2023-05-07T06:17:17;11.77;;;8.30;;
39772;SDS011;25451;51.960;6.250;2023-05-07T06:19:42;12.85;;;8.50;;
39772;SDS011;25451;51.960;6.250;2023-05-07T06:22:07;15.20;;;8.83;;
39772;SDS011;25451;51.960;6.250;2023-05-07T06:24:33;12.97;;;8.47;;
39772;SDS011;25451;51.960;6.250;2023-05-07T06:26:58;13.93;;;8.57;;
39772;SDS011;25451;51.960;6.250;2023-05-07T06:29:23;12.60;;;8.23;;
39772;SDS011;25451;51.960;6.250;2023-05-07T06:31:50;12.63;;;8.23;;
39772;SDS011;25451;51.960;6.250;2023-05-07T06:34:18;12.82;;;7.97;;
39772;SDS011;25451;51.960;6.250;2023-05-07T06:36:44;13.37;;;8.43;;
39772;SDS011;25451;51.960;6.250;2023-05-07T06:39:09;14.70;;;8.90;;
39772;SDS011;25451;51.960;6.250;2023-05-07T06:41:34;13.57;;;8.50;;
39772;SDS011;25451;51.960;6.250;2023-05-07T06:44:01;15.00;;;9.07;;
39772;SDS011;25451;51.960;6.250;2023-05-07T06:46:27;15.15;;;8.40;;
39772;SDS011;25451;51.960;6.250;2023-05-07T06:48:52;13.95;;;8.82;;
39772;SDS011;25451;51.960;6.250;2023-05-07T06:51:18;14.83;;;9.17;;
39772;SDS011;25451;51.960;6.250;2023-05-07T06:53:43;15.13;;;8.60;;
39772;SDS011;25451;51.960;6.250;2023-05-07T06:56:08;13.90;;;8.83;;
39772;SDS011;25451;51.960;6.250;2023-05-07T06:58:34;16.07;;;9.43;;
39772;SDS011;25451;51.960;6.250;2023-05-07T07:00:59;16.30;;;9.37;;
39772;SDS011;25451;51.960;6.250;2023-05-07T07:03:24;14.30;;;8.80;;
39772;SDS011;25451;51.960;6.250;2023-05-07T07:05:53;14.87;;;9.37;;
39772;SDS011;25451;51.960;6.250;2023-05-07T07:08:19;15.45;;;9.38;;
39772;SDS011;25451;51.960;6.250;2023-05-07T07:10:46;15.00;;;8.93;;
39772;SDS011;25451;51.960;6.250;2023-05-07T07:13:11;16.63;;;9.13;;
39772;SDS011;25451;51.960;6.250;2023-05-07T07:15:38;15.55;;;8.65;;
39772;SDS011;25451;51.960;6.250;2023-05-07T07:18:03;17.03;;;9.20;;
39772;SDS011;25451;51.960;6.250;2023-05-07T07:20:29;15.57;;;9.37;;
39772;SDS011;25451;51.960;6.250;2023-05-07T07:22:54;15.68;;;9.13;;
39772;SDS011;25451;51.960;6.250;2023-05-07T07:25:20;16.65;;;9.52;;
39772;SDS011;25451;51.960;6.250;2023-05-07T07:27:45;19.50;;;9.93;;
39772;SDS011;25451;51.960;6.250;2023-05-07T07:30:10;18.30;;;9.60;;
39772;SDS011;25451;51.960;6.250;2023-05-07T07:32:36;16.00;;;9.20;;
39772;SDS011;25451;51.960;6.250;2023-05-07T07:35:01;16.17;;;9.20;;
39772;SDS011;25451;51.960;6.250;2023-05-07T07:37:27;15.10;;;8.60;;
39772;SDS011;25451;51.960;6.250;2023-05-07T07:39:52;15.77;;;9.63;;
39772;SDS011;25451;51.960;6.250;2023-05-07T07:42:17;16.43;;;9.23;;
39772;SDS011;25451;51.960;6.250;2023-05-07T07:44:43;14.50;;;8.90;;
39772;SDS011;25451;51.960;6.250;2023-05-07T07:47:08;16.58;;;9.43;;
39772;SDS011;25451;51.960;6.250;2023-05-07T07:49:34;17.63;;;9.17;;
39772;SDS011;25451;51.960;6.250;2023-05-07T07:52:00;14.97;;;8.97;;
39772;SDS011;25451;51.960;6.250;2023-05-07T07:54:25;17.25;;;9.13;;
39772;SDS011;25451;51.960;6.250;2023-05-07T07:56:50;16.33;;;9.07;;
39772;SDS011;25451;51.960;6.250;2023-05-07T07:59:16;14.73;;;8.70;;
39772;SDS011;25451;51.960;6.250;2023-05-07T08:01:43;14.63;;;8.98;;
39772;SDS011;25451;51.960;6.250;2023-05-07T08:04:09;17.60;;;9.40;;
39772;SDS011;25451;51.960;6.250;2023-05-07T08:06:35;15.25;;;8.88;;
39772;SDS011;25451;51.960;6.250;2023-05-07T08:09:00;16.30;;;9.10;;
39772;SDS011;25451;51.960;6.250;2023-05-07T08:11:26;14.87;;;8.17;;
39772;SDS011;25451;51.960;6.250;2023-05-07T08:13:51;15.30;;;8.00;;
39772;SDS011;25451;51.960;6.250;2023-05-07T08:16:16;14.50;;;8.63;;
39772;SDS011;25451;51.960;6.250;2023-05-07T08:18:42;14.40;;;8.23;;
39772;SDS011;25451;51.960;6.250;2023-05-07T08:21:07;13.30;;;8.15;;
39772;SDS011;25451;51.960;6.250;2023-05-07T08:23:33;12.23;;;8.13;;
39772;SDS011;25451;51.960;6.250;2023-05-07T08:25:59;13.25;;;8.13;;
39772;SDS011;25451;51.960;6.250;2023-05-07T08:28:25;16.83;;;8.77;;
39772;SDS011;25451;51.960;6.250;2023-05-07T08:30:50;12.80;;;8.00;;
39772;SDS011;25451;51.960;6.250;2023-05-07T08:33:15;12.88;;;8.32;;
39772;SDS011;25451;51.960;6.250;2023-05-07T08:35:41;14.65;;;8.50;;
39772;SDS011;25451;51.960;6.250;2023-05-07T08:38:06;13.80;;;8.63;;
39772;SDS011;25451;51.960;6.250;2023-05-07T08:40:33;13.67;;;8.57;;
39772;SDS011;25451;51.960;6.250;2023-05-07T08:43:02;13.27;;;8.13;;
39772;SDS011;25451;51.960;6.250;2023-05-07T08:45:27;15.23;;;8.10;;
39772;SDS011;25451;51.960;6.250;2023-05-07T08:47:58;12.63;;;8.10;;
39772;SDS011;25451;51.960;6.250;2023-05-07T08:50:24;14.05;;;8.35;;
39772;SDS011;25451;51.960;6.250;2023-05-07T08:52:50;13.53;;;7.80;;
39772;SDS011;25451;51.960;6.250;2023-05-07T08:55:15;11.93;;;7.30;;
39772;SDS011;25451;51.960;6.250;2023-05-07T08:57:42;12.35;;;7.50;;
39772;SDS011;25451;51.960;6.250;2023-05-07T09:00:07;13.47;;;7.73;;
39772;SDS011;25451;51.960;6.250;2023-05-07T09:02:34;12.57;;;7.63;;
39772;SDS011;25451;51.960;6.250;2023-05-07T09:05:00;12.90;;;7.85;;
39772;SDS011;25451;51.960;6.250;2023-05-07T09:07:25;12.23;;;7.50;;
39772;SDS011;25451;51.960;6.250;2023-05-07T09:09:51;13.50;;;7.47;;
39772;SDS011;25451;51.960;6.250;2023-05-07T09:12:17;14.35;;;7.80;;
39772;SDS011;25451;51.960;6.250;2023-05-07T09:14:43;10.95;;;6.90;;
39772;SDS011;25451;51.960;6.250;2023-05-07T09:17:09;11.93;;;6.77;;
39772;SDS011;25451;51.960;6.250;2023-05-07T09:19:34;12.17;;;6.87;;
39772;SDS011;25451;51.960;6.250;2023-05-07T09:22:03;11.40;;;6.83;;
39772;SDS011;25451;51.960;6.250;2023-05-07T09:24:30;10.40;;;6.05;;
39772;SDS011;25451;51.960;6.250;2023-05-07T09:27:00;12.85;;;7.30;;
39772;SDS011;25451;51.960;6.250;2023-05-07T09:29:26;11.93;;;6.60;;
39772;SDS011;25451;51.960;6.250;2023-05-07T09:31:54;10.23;;;6.60;;
39772;SDS011;25451;51.960;6.250;2023-05-07T09:34:19;9.77;;;6.23;;
39772;SDS011;25451;51.960;6.250;2023-05-07T09:36:45;12.23;;;6.57;;
39772;SDS011;25451;51.960;6.250;2023-05-07T09:39:10;11.63;;;6.47;;
39772;SDS011;25451;51.960;6.250;2023-05-07T09:41:43;8.70;;;5.50;;
39772;SDS011;25451;51.960;6.250;2023-05-07T09:44:09;9.10;;;5.95;;
39772;SDS011;25451;51.960;6.250;2023-05-07T09:46:36;8.70;;;5.60;;
39772;SDS011;25451;51.960;6.250;2023-05-07T09:49:03;9.80;;;5.82;;
39772;SDS011;25451;51.960;6.250;2023-05-07T09:51:36;9.05;;;5.75;;
39772;SDS011;25451;51.960;6.250;2023-05-07T09:54:06;7.88;;;4.93;;
39772;SDS011;25451;51.960;6.250;2023-05-07T09:56:32;8.77;;;5.40;;
39772;SDS011;25451;51.960;6.250;2023-05-07T09:58:59;9.57;;;5.38;;
39772;SDS011;25451;51.960;6.250;2023-05-07T10:01:25;8.18;;;5.40;;
39772;SDS011;25451;51.960;6.250;2023-05-07T10:03:52;9.05;;;5.40;;
39772;SDS011;25451;51.960;6.250;2023-05-07T10:06:19;9.43;;;5.55;;
39772;SDS011;25451;51.960;6.250;2023-05-07T10:08:45;8.43;;;5.07;;
39772;SDS011;25451;51.960;6.250;2023-05-07T10:11:10;8.60;;;5.00;;
39772;SDS011;25451;51.960;6.250;2023-05-07T10:13:36;9.27;;;5.20;;
39772;SDS011;25451;51.960;6.250;2023-05-07T10:16:03;8.18;;;5.53;;
39772;SDS011;25451;51.960;6.250;2023-05-07T10:18:30;7.47;;;4.95;;
39772;SDS011;25451;51.960;6.250;2023-05-07T10:21:01;7.70;;;5.03;;
39772;SDS011;25451;51.960;6.250;2023-05-07T10:23:35;9.13;;;5.33;;
39772;SDS011;25451;51.960;6.250;2023-05-07T10:26:04;9.32;;;5.32;;
39772;SDS011;25451;51.960;6.250;2023-05-07T10:28:32;10.45;;;5.68;;
39772;SDS011;25451;51.960;6.250;2023-05-07T10:33:55;8.43;;;5.72;;
39772;SDS011;25451;51.960;6.250;2023-05-07T10:36:23;10.03;;;5.87;;
39772;SDS011;25451;51.960;6.250;2023-05-07T10:38:50;8.48;;;5.15;;
39772;SDS011;25451;51.960;6.250;2023-05-07T10:41:15;8.93;;;5.60;;
39772;SDS011;25451;51.960;6.250;2023-05-07T10:43:44;9.23;;;5.80;;
39772;SDS011;25451;51.960;6.250;2023-05-07T10:51:31;8.63;;;5.22;;
39772;SDS011;25451;51.960;6.250;2023-05-07T10:56:38;8.83;;;4.63;;
39772;SDS011;25451;51.960;6.250;2023-05-07T11:01:58;9.73;;;5.53;;
39772;SDS011;25451;51.960;6.250;2023-05-07T11:04:31;11.13;;;5.95;;
39772;SDS011;25451;51.960;6.250;2023-05-07T11:07:10;10.45;;;6.50;;
39772;SDS011;25451;51.960;6.250;2023-05-07T11:20:19;10.20;;;4.63;;
39772;SDS011;25451;51.960;6.250;2023-05-07T11:22:45;8.23;;;4.30;;
39772;SDS011;25451;51.960;6.250;2023-05-07T11:25:11;10.13;;;4.90;;
39772;SDS011;25451;51.960;6.250;2023-05-07T11:27:42;7.97;;;4.28;;
39772;SDS011;25451;51.960;6.250;2023-05-07T11:30:08;8.53;;;4.50;;
39772;SDS011;25451;51.960;6.250;2023-05-07T11:32:34;7.10;;;4.60;;
39772;SDS011;25451;51.960;6.250;2023-05-07T11:35:00;6.67;;;4.50;;
39772;SDS011;25451;51.960;6.250;2023-05-07T11:37:26;7.40;;;4.97;;
39772;SDS011;25451;51.960;6.250;2023-05-07T11:40:03;8.35;;;5.35;;
39772;SDS011;25451;51.960;6.250;2023-05-07T11:42:31;8.20;;;5.20;;
39772;SDS011;25451;51.960;6.250;2023-05-07T11:44:58;11.65;;;5.80;;
39772;SDS011;25451;51.960;6.250;2023-05-07T11:47:24;9.20;;;5.77;;
39772;SDS011;25451;51.960;6.250;2023-05-07T11:49:51;9.43;;;6.18;;
39772;SDS011;25451;51.960;6.250;2023-05-07T11:52:17;7.07;;;4.57;;
39772;SDS011;25451;51.960;6.250;2023-05-07T11:54:50;10.07;;;4.68;;
39772;SDS011;25451;51.960;6.250;2023-05-07T11:57:17;5.50;;;3.87;;
39772;SDS011;25451;51.960;6.250;2023-05-07T11:59:43;7.80;;;4.05;;
39772;SDS011;25451;51.960;6.250;2023-05-07T12:02:14;8.13;;;5.13;;
39772;SDS011;25451;51.960;6.250;2023-05-07T12:04:40;7.88;;;4.28;;
39772;SDS011;25451;51.960;6.250;2023-05-07T12:07:15;7.97;;;4.80;;
39772;SDS011;25451;51.960;6.250;2023-05-07T12:09:41;10.80;;;5.00;;
39772;SDS011;25451;51.960;6.250;2023-05-07T12:12:07;7.17;;;4.50;;
39772;SDS011;25451;51.960;6.250;2023-05-07T12:14:37;7.07;;;3.97;;
39772;SDS011;25451;51.960;6.250;2023-05-07T12:17:07;9.20;;;5.50;;
39772;SDS011;25451;51.960;6.250;2023-05-07T12:19:33;7.93;;;4.80;;
39772;SDS011;25451;51.960;6.250;2023-05-07T12:21:59;7.38;;;3.97;;
39772;SDS011;25451;51.960;6.250;2023-05-07T12:24:27;10.57;;;5.50;;
39772;SDS011;25451;51.960;6.250;2023-05-07T12:26:52;8.13;;;5.25;;
39772;SDS011;25451;51.960;6.250;2023-05-07T12:29:20;8.60;;;5.37;;
39772;SDS011;25451;51.960;6.250;2023-05-07T12:31:47;8.37;;;4.77;;
39772;SDS011;25451;51.960;6.250;2023-05-07T12:34:14;8.68;;;5.07;;
39772;SDS011;25451;51.960;6.250;2023-05-07T12:36:40;7.85;;;4.60;;
39772;SDS011;25451;51.960;6.250;2023-05-07T12:39:06;8.17;;;5.00;;
39772;SDS011;25451;51.960;6.250;2023-05-07T12:41:35;9.13;;;5.20;;
39772;SDS011;25451;51.960;6.250;2023-05-07T12:44:16;8.65;;;5.05;;
39772;SDS011;25451;51.960;6.250;2023-05-07T12:46:42;9.63;;;6.30;;
39772;SDS011;25451;51.960;6.250;2023-05-07T12:49:07;8.97;;;5.37;;
39772;SDS011;25451;51.960;6.250;2023-05-07T12:51:34;7.43;;;4.90;;
39772;SDS011;25451;51.960;6.250;2023-05-07T12:54:00;6.32;;;4.55;;
39772;SDS011;25451;51.960;6.250;2023-05-07T12:56:25;7.63;;;4.20;;
39772;SDS011;25451;51.960;6.250;2023-05-07T12:58:50;8.33;;;5.00;;
39772;SDS011;25451;51.960;6.250;2023-05-07T13:01:16;9.73;;;5.47;;
39772;SDS011;25451;51.960;6.250;2023-05-07T13:03:47;8.63;;;5.20;;
39772;SDS011;25451;51.960;6.250;2023-05-07T13:06:13;7.38;;;4.53;;
39772;SDS011;25451;51.960;6.250;2023-05-07T13:08:39;8.50;;;4.57;;
39772;SDS011;25451;51.960;6.250;2023-05-07T13:11:08;9.05;;;4.47;;
39772;SDS011;25451;51.960;6.250;2023-05-07T13:13:35;6.23;;;3.90;;
39772;SDS011;25451;51.960;6.250;2023-05-07T13:16:03;8.02;;;4.70;;
39772;SDS011;25451;51.960;6.250;2023-05-07T13:18:30;6.78;;;4.00;;
39772;SDS011;25451;51.960;6.250;2023-05-07T13:20:57;6.72;;;4.03;;
39772;SDS011;25451;51.960;6.250;2023-05-07T13:23:22;8.50;;;4.10;;
39772;SDS011;25451;51.960;6.250;2023-05-07T13:25:48;6.97;;;4.32;;
39772;SDS011;25451;51.960;6.250;2023-05-07T13:28:14;6.40;;;4.38;;
39772;SDS011;25451;51.960;6.250;2023-05-07T13:30:39;6.97;;;4.20;;
39772;SDS011;25451;51.960;6.250;2023-05-07T13:33:05;6.95;;;4.13;;
39772;SDS011;25451;51.960;6.250;2023-05-07T13:35:31;10.63;;;4.67;;
39772;SDS011;25451;51.960;6.250;2023-05-07T13:37:57;7.10;;;4.72;;
39772;SDS011;25451;51.960;6.250;2023-05-07T13:40:23;7.50;;;4.80;;
39772;SDS011;25451;51.960;6.250;2023-05-07T13:42:48;12.30;;;5.25;;
39772;SDS011;25451;51.960;6.250;2023-05-07T13:45:14;9.13;;;4.83;;
39772;SDS011;25451;51.960;6.250;2023-05-07T13:47:43;6.82;;;4.40;;
39772;SDS011;25451;51.960;6.250;2023-05-07T13:50:09;6.63;;;3.95;;
39772;SDS011;25451;51.960;6.250;2023-05-07T13:52:36;8.17;;;4.37;;
39772;SDS011;25451;51.960;6.250;2023-05-07T13:55:02;9.20;;;4.20;;
39772;SDS011;25451;51.960;6.250;2023-05-07T13:57:27;6.78;;;4.00;;
39772;SDS011;25451;51.960;6.250;2023-05-07T13:59:53;6.87;;;3.87;;
39772;SDS011;25451;51.960;6.250;2023-05-07T14:02:18;6.40;;;3.60;;
39772;SDS011;25451;51.960;6.250;2023-05-07T14:04:43;6.93;;;4.50;;
39772;SDS011;25451;51.960;6.250;2023-05-07T14:07:10;6.13;;;4.00;;
39772;SDS011;25451;51.960;6.250;2023-05-07T14:09:35;6.43;;;3.90;;
39772;SDS011;25451;51.960;6.250;2023-05-07T14:12:00;6.73;;;3.80;;
39772;SDS011;25451;51.960;6.250;2023-05-07T14:14:26;7.93;;;3.92;;
39772;SDS011;25451;51.960;6.250;2023-05-07T14:16:51;6.90;;;4.03;;
39772;SDS011;25451;51.960;6.250;2023-05-07T14:19:17;7.83;;;4.33;;
39772;SDS011;25451;51.960;6.250;2023-05-07T14:21:42;7.07;;;4.13;;
39772;SDS011;25451;51.960;6.250;2023-05-07T14:24:07;6.90;;;4.20;;
39772;SDS011;25451;51.960;6.250;2023-05-07T14:26:33;6.80;;;4.15;;
39772;SDS011;25451;51.960;6.250;2023-05-07T14:28:59;8.83;;;4.07;;
39772;SDS011;25451;51.960;6.250;2023-05-07T14:31:24;7.38;;;3.53;;
39772;SDS011;25451;51.960;6.250;2023-05-07T14:33:50;8.47;;;4.07;;
39772;SDS011;25451;51.960;6.250;2023-05-07T14:36:16;6.23;;;3.67;;
39772;SDS011;25451;51.960;6.250;2023-05-07T14:38:42;6.60;;;3.90;;
39772;SDS011;25451;51.960;6.250;2023-05-07T14:41:07;7.93;;;4.83;;
39772;SDS011;25451;51.960;6.250;2023-05-07T14:43:32;6.90;;;4.00;;
39772;SDS011;25451;51.960;6.250;2023-05-07T14:45:58;9.07;;;4.30;;
39772;SDS011;25451;51.960;6.250;2023-05-07T14:48:23;8.40;;;4.90;;
39772;SDS011;25451;51.960;6.250;2023-05-07T14:50:48;7.17;;;4.47;;
39772;SDS011;25451;51.960;6.250;2023-05-07T14:53:14;6.93;;;4.40;;
39772;SDS011;25451;51.960;6.250;2023-05-07T14:55:40;8.45;;;4.60;;
39772;SDS011;25451;51.960;6.250;2023-05-07T14:58:05;7.07;;;4.47;;